createdAt,value
2023-01-18T05:25:29.180Z,151.83
2023-01-18T05:27:57.010Z,151.90
2023-01-18T05:30:24.850Z,152.03
2023-01-18T05:32:52.660Z,151.90
2023-01-18T05:35:20.484Z,152.07
2023-01-18T05:37:48.305Z,151.97
2023-01-18T05:40:17.859Z,152.60
2023-01-18T05:42:47.364Z,152.23
2023-01-18T05:45:15.405Z,152.30
2023-01-18T05:47:43.365Z,152.20
2023-01-18T05:50:11.732Z,152.20
2023-01-18T05:52:39.628Z,152.27
2023-01-18T05:55:08.020Z,152.07
2023-01-18T05:57:35.839Z,151.93
2023-01-18T06:00:06.231Z,151.27
2023-01-18T06:02:39.372Z,151.70
2023-01-18T06:05:07.880Z,151.60
2023-01-18T06:07:35.735Z,151.80
2023-01-18T06:10:03.587Z,152.03
2023-01-18T06:12:31.459Z,152.00
2023-01-18T06:14:59.270Z,152.37
2023-01-18T06:17:31.204Z,151.73
2023-01-18T06:19:59.919Z,151.70
2023-01-18T06:22:27.835Z,151.63
2023-01-18T06:24:55.795Z,152.37
2023-01-18T06:27:23.636Z,152.27
2023-01-18T06:29:51.500Z,152.10
2023-01-18T06:32:19.331Z,152.10
2023-01-18T06:34:48.506Z,151.67
2023-01-18T06:37:16.393Z,151.63
2023-01-18T06:39:44.203Z,152.27
2023-01-18T06:42:12.062Z,152.13
2023-01-18T06:44:40.964Z,152.30
2023-01-18T06:47:08.865Z,152.03
2023-01-18T06:49:36.726Z,152.20
2023-01-18T06:52:06.284Z,152.17
2023-01-18T06:54:34.107Z,151.83
2023-01-18T06:57:01.941Z,152.30
2023-01-18T06:59:29.759Z,152.67
2023-01-18T07:01:57.711Z,152.00
2023-01-18T07:04:25.740Z,152.37
2023-01-18T07:06:53.698Z,152.43
2023-01-18T07:09:22.882Z,152.83
2023-01-18T07:11:50.806Z,152.10
2023-01-18T07:14:18.607Z,152.00
2023-01-18T07:16:46.461Z,152.47
2023-01-18T07:19:16.243Z,152.33
2023-01-18T07:21:45.326Z,151.97
2023-01-18T07:24:13.315Z,151.73
2023-01-18T07:26:44.016Z,151.57
2023-01-18T07:29:12.110Z,151.20
2023-01-18T07:31:40.514Z,151.83
2023-01-18T07:34:09.904Z,151.73
2023-01-18T07:36:39.129Z,151.80
2023-01-18T07:39:06.995Z,151.27
2023-01-18T07:41:35.166Z,151.17
2023-01-18T07:44:05.830Z,151.63
2023-01-18T07:46:33.746Z,151.70
2023-01-18T07:49:02.277Z,151.57
2023-01-18T07:51:30.472Z,151.60
2023-01-18T07:53:58.808Z,151.87
2023-01-18T07:56:27.114Z,151.97
2023-01-18T07:58:55.679Z,151.70
2023-01-18T08:01:25.445Z,151.87
2023-01-18T08:03:54.580Z,151.93
2023-01-18T08:06:25.687Z,151.57
2023-01-18T08:08:55.807Z,151.67
2023-01-18T08:11:23.958Z,151.63
2023-01-18T08:13:52.794Z,151.63
2023-01-18T08:16:20.868Z,151.43
2023-01-18T08:18:53.770Z,151.70
2023-01-18T08:21:22.821Z,151.63
2023-01-18T08:23:53.657Z,151.80
2023-01-18T08:26:21.838Z,151.37
2023-01-18T08:28:49.716Z,152.27
2023-01-18T08:31:19.942Z,151.90
2023-01-18T08:33:49.920Z,152.47
2023-01-18T08:36:20.784Z,151.90
2023-01-18T08:38:49.979Z,152.13
2023-01-18T08:41:17.978Z,152.27
2023-01-18T08:43:47.496Z,151.73
2023-01-18T08:46:15.440Z,152.17
2023-01-18T08:48:43.805Z,151.67
2023-01-18T08:51:11.911Z,152.37
2023-01-18T08:53:41.251Z,151.93
2023-01-18T08:56:10.107Z,151.43
2023-01-18T08:58:37.925Z,152.07
2023-01-18T09:01:06.761Z,152.20
2023-01-18T09:03:35.124Z,151.60
2023-01-18T09:06:04.122Z,152.43
2023-01-18T09:08:32.573Z,152.23
2023-01-18T09:11:04.156Z,153.20
2023-01-18T09:13:32.595Z,152.63
2023-01-18T09:16:01.324Z,152.53
2023-01-18T09:18:30.054Z,151.97
2023-01-18T09:20:58.191Z,152.83
2023-01-18T09:23:26.688Z,152.80
2023-01-18T09:26:04.077Z,153.33
2023-01-18T09:28:32.495Z,152.70
2023-01-18T09:31:03.672Z,152.93
2023-01-18T09:33:37.494Z,152.37
2023-01-18T09:36:09.668Z,152.47
2023-01-18T09:38:38.609Z,153.10
2023-01-18T09:41:19.560Z,152.37
2023-01-18T09:43:51.152Z,153.07
2023-01-18T09:46:21.146Z,153.07
2023-01-18T09:48:54.833Z,153.63
2023-01-18T09:51:26.687Z,152.90
2023-01-18T09:54:05.937Z,152.83
2023-01-18T09:56:43.230Z,152.90
2023-01-18T09:59:21.658Z,152.90
2023-01-18T10:01:51.164Z,153.03
2023-01-18T10:04:24.003Z,152.90
2023-01-18T10:06:56.578Z,152.20
2023-01-18T10:09:29.595Z,152.77
2023-01-18T10:12:02.833Z,152.67
2023-01-18T10:14:44.130Z,152.03
2023-01-18T10:17:14.924Z,152.53
2023-01-18T10:19:42.857Z,152.83
2023-01-18T10:22:21.892Z,152.27
2023-01-18T10:24:57.337Z,152.60
2023-01-18T10:27:48.544Z,152.87
2023-01-18T10:30:28.747Z,152.70
2023-01-18T10:32:59.231Z,153.00
2023-01-18T10:35:32.042Z,153.07
2023-01-18T10:38:03.101Z,153.23
2023-01-18T10:40:31.149Z,152.83
2023-01-18T10:43:04.225Z,152.80
2023-01-18T10:45:34.329Z,152.23
2023-01-18T10:48:25.678Z,153.17
2023-01-18T10:50:55.705Z,153.40
2023-01-18T10:53:28.166Z,152.77
2023-01-18T10:55:59.332Z,153.43
2023-01-18T10:58:35.814Z,153.23
2023-01-18T11:01:04.927Z,152.87
2023-01-18T11:03:44.386Z,153.07
2023-01-18T11:06:13.520Z,153.40
2023-01-18T11:08:41.388Z,153.43
2023-01-18T11:11:19.946Z,152.73
2023-01-18T11:13:50.655Z,153.27
2023-01-18T11:16:20.711Z,152.60
2023-01-18T11:19:02.865Z,153.10
2023-01-18T11:21:44.133Z,153.13
2023-01-18T11:24:15.867Z,153.13
2023-01-18T11:26:55.898Z,152.67
2023-01-18T11:29:28.927Z,153.40
2023-01-18T11:32:01.409Z,152.93
2023-01-18T11:34:31.337Z,153.07
2023-01-18T11:37:01.001Z,153.17
2023-01-18T11:39:32.877Z,153.03
2023-01-18T11:42:23.677Z,153.63
2023-01-18T11:45:02.317Z,153.23
2023-01-18T11:47:38.207Z,153.37
2023-01-18T11:50:22.133Z,153.70
2023-01-18T11:52:54.209Z,152.80
2023-01-18T11:55:31.266Z,153.40
2023-01-18T11:58:00.861Z,153.60
2023-01-18T12:00:38.751Z,153.43
2023-01-18T12:03:57.803Z,152.50
2023-01-18T12:06:38.749Z,153.03
2023-01-18T12:09:26.320Z,153.13
2023-01-18T12:12:18.391Z,153.27
2023-01-18T12:15:01.669Z,152.23
2023-01-18T12:18:07.770Z,152.87
2023-01-18T12:20:46.371Z,153.13
2023-01-18T12:23:45.803Z,153.43
2023-01-18T12:26:27.280Z,152.70
2023-01-18T12:29:19.674Z,153.10
2023-01-18T12:32:00.107Z,153.47
2023-01-18T12:34:41.176Z,153.57
2023-01-18T12:37:27.321Z,153.20
2023-01-18T12:40:06.415Z,152.90
2023-01-18T12:42:47.776Z,152.70
2023-01-18T12:45:26.078Z,152.83
2023-01-18T12:48:02.201Z,152.90
2023-01-18T12:50:35.503Z,153.03
2023-01-18T12:53:06.659Z,153.23
2023-01-18T12:55:36.384Z,152.80
2023-01-18T12:58:05.210Z,152.20
2023-01-18T13:00:38.012Z,152.00
2023-01-18T13:03:12.640Z,152.27
2023-01-18T13:05:52.325Z,152.63
2023-01-18T13:08:29.709Z,152.33
2023-01-18T13:11:06.345Z,152.23
2023-01-18T13:13:35.384Z,152.77
2023-01-18T13:16:18.028Z,152.50
2023-01-18T13:18:54.581Z,152.33
2023-01-18T13:21:35.913Z,152.30
2023-01-18T13:24:17.056Z,152.37
2023-01-18T13:26:45.378Z,151.83
2023-01-18T13:29:23.946Z,152.40
2023-01-18T13:31:52.791Z,151.93
2023-01-18T13:34:32.927Z,152.70
2023-01-18T13:37:14.560Z,152.60
2023-01-18T13:39:48.393Z,152.23
2023-01-18T13:42:33.817Z,152.37
2023-01-18T13:45:17.144Z,153.17
2023-01-18T13:48:00.984Z,152.77
2023-01-18T13:50:45.079Z,152.77
2023-01-18T13:53:50.910Z,153.00
2023-01-18T13:56:29.052Z,152.90
2023-01-18T13:59:05.258Z,152.20
2023-01-18T14:01:37.607Z,152.70
2023-01-18T14:04:22.610Z,152.67
2023-01-18T14:06:51.735Z,152.07
2023-01-18T14:09:32.861Z,152.20
2023-01-18T14:12:01.707Z,152.47
2023-01-18T14:14:33.219Z,152.87
2023-01-18T14:17:07.291Z,153.10
2023-01-18T14:19:59.656Z,152.67
2023-01-18T14:22:40.532Z,152.60
2023-01-18T14:25:40.119Z,152.93
2023-01-18T14:28:13.321Z,152.37
2023-01-18T14:30:44.815Z,153.07
2023-01-18T14:33:18.282Z,152.70
2023-01-18T14:35:53.179Z,152.47
2023-01-18T14:38:22.207Z,153.10
2023-01-18T14:40:53.666Z,152.97
2023-01-18T14:43:27.110Z,152.60
2023-01-18T14:45:59.845Z,152.97
2023-01-18T14:48:30.671Z,152.97
2023-01-18T14:51:00.155Z,152.73
2023-01-18T14:53:30.642Z,153.37
2023-01-18T14:56:10.527Z,152.57
2023-01-18T14:58:40.729Z,153.07
2023-01-18T15:01:23.507Z,152.87
2023-01-18T15:03:54.722Z,153.03
2023-01-18T15:06:36.206Z,152.90
2023-01-18T15:09:05.624Z,152.57
2023-01-18T15:11:36.354Z,153.27
2023-01-18T15:14:08.548Z,152.90
2023-01-18T15:16:37.131Z,152.20
2023-01-18T15:19:05.259Z,152.93
2023-01-18T15:21:36.243Z,152.60
2023-01-18T15:24:07.353Z,153.03
2023-01-18T15:26:43.691Z,152.93
2023-01-18T15:29:16.788Z,152.83
2023-01-18T15:31:51.309Z,153.07
2023-01-18T15:34:24.384Z,152.47
2023-01-18T15:36:52.571Z,152.93
2023-01-18T15:39:20.929Z,153.07
2023-01-18T15:41:51.201Z,152.43
2023-01-18T15:44:34.381Z,152.40
2023-01-18T15:47:02.859Z,152.87
2023-01-18T15:49:30.809Z,152.80
2023-01-18T15:52:00.270Z,152.97
2023-01-18T15:54:29.640Z,153.27
2023-01-18T15:57:11.434Z,152.73
2023-01-18T15:59:42.521Z,152.50
2023-01-18T16:02:19.761Z,153.37
2023-01-18T16:04:48.431Z,153.13
2023-01-18T16:07:36.776Z,153.10
2023-01-18T16:10:27.651Z,153.50
2023-01-18T16:13:17.786Z,152.73
2023-01-18T16:16:01.044Z,152.87
2023-01-18T16:18:28.936Z,153.17
2023-01-18T16:20:57.243Z,153.13
2023-01-18T16:23:26.554Z,152.90
2023-01-18T16:26:00.911Z,153.97
2023-01-18T16:28:29.318Z,153.57
2023-01-18T16:31:03.150Z,153.40
2023-01-18T16:33:31.286Z,153.53
2023-01-18T16:35:59.136Z,153.17
2023-01-18T16:38:27.048Z,153.60
2023-01-18T16:40:55.265Z,153.43
2023-01-18T16:43:25.312Z,153.23
2023-01-18T16:45:55.668Z,153.77
2023-01-18T16:48:26.755Z,153.73
2023-01-18T16:50:55.734Z,153.60
2023-01-18T16:53:24.098Z,153.77
2023-01-18T16:55:52.108Z,153.53
2023-01-18T16:58:21.225Z,153.80
2023-01-18T17:00:54.709Z,153.97
2023-01-18T17:03:24.378Z,153.37
2023-01-18T17:05:52.583Z,153.13
2023-01-18T17:08:20.723Z,152.97
2023-01-18T17:10:49.961Z,152.77
2023-01-18T17:13:18.239Z,153.23
2023-01-18T17:15:46.207Z,153.33
2023-01-18T17:18:16.460Z,153.57
2023-01-18T17:20:45.855Z,154.10
2023-01-18T17:23:13.780Z,152.97
2023-01-18T17:25:41.920Z,153.33
2023-01-18T17:28:11.880Z,153.87
2023-01-18T17:30:40.977Z,153.47
2023-01-18T17:33:14.288Z,153.93
2023-01-18T17:35:42.155Z,153.70
2023-01-18T17:38:17.263Z,153.17
2023-01-18T17:40:50.615Z,153.77
2023-01-18T17:43:32.165Z,153.97
2023-01-18T17:46:04.825Z,153.93
2023-01-18T17:48:32.789Z,153.43
2023-01-18T17:51:00.825Z,153.17
2023-01-18T17:53:29.983Z,153.13
2023-01-18T17:55:57.813Z,153.13
2023-01-18T17:58:26.085Z,153.50
2023-01-18T18:00:53.968Z,154.03
2023-01-18T18:03:22.093Z,153.33
2023-01-18T18:05:50.724Z,153.03
2023-01-18T18:08:19.301Z,153.83
2023-01-18T18:10:49.511Z,154.23
2023-01-18T18:13:18.765Z,153.40
2023-01-18T18:15:46.947Z,154.27
2023-01-18T18:18:30.071Z,153.90
2023-01-18T18:20:59.281Z,153.57
2023-01-18T18:23:28.016Z,153.47
2023-01-18T18:25:58.169Z,152.83
2023-01-18T18:28:29.329Z,153.50
2023-01-18T18:30:58.718Z,153.90
2023-01-18T18:33:27.784Z,153.53
2023-01-18T18:35:56.300Z,153.27
2023-01-18T18:38:26.413Z,153.97
2023-01-18T18:40:54.607Z,154.30
2023-01-18T18:43:24.494Z,153.57
2023-01-18T18:45:52.771Z,153.50
2023-01-18T18:48:20.656Z,153.63
2023-01-18T18:50:48.523Z,153.77
2023-01-18T18:53:18.113Z,153.77
2023-01-18T18:55:47.427Z,153.43
2023-01-18T18:58:15.353Z,152.80
2023-01-18T19:00:44.634Z,153.47
2023-01-18T19:03:12.536Z,153.63
2023-01-18T19:05:40.438Z,153.37
2023-01-18T19:08:08.308Z,152.53
2023-01-18T19:10:36.358Z,152.70
2023-01-18T19:13:04.794Z,152.60
2023-01-18T19:15:32.881Z,153.47
2023-01-18T19:18:02.105Z,153.10
2023-01-18T19:20:30.072Z,152.70
2023-01-18T19:22:58.860Z,153.03
2023-01-18T19:25:27.133Z,153.77
2023-01-18T19:27:55.032Z,152.87
2023-01-18T19:30:22.969Z,153.47
2023-01-18T19:32:52.082Z,153.17
2023-01-18T19:35:21.922Z,152.83
2023-01-18T19:37:50.096Z,152.63
2023-01-18T19:40:18.453Z,152.93
2023-01-18T19:42:47.002Z,152.80
2023-01-18T19:45:23.141Z,153.33
2023-01-18T19:47:56.171Z,152.37
2023-01-18T19:50:26.423Z,152.70
2023-01-18T19:52:55.886Z,152.83
2023-01-18T19:55:24.939Z,153.33
2023-01-18T19:57:56.378Z,152.50
2023-01-18T20:00:24.605Z,152.90
2023-01-18T20:02:53.048Z,152.70
2023-01-18T20:05:21.150Z,153.03
2023-01-18T20:07:50.365Z,153.13
2023-01-18T20:10:20.203Z,152.57
2023-01-18T20:12:48.852Z,152.93
2023-01-18T20:15:18.825Z,152.83
2023-01-18T20:17:46.708Z,152.93
2023-01-18T20:20:24.305Z,153.33
2023-01-18T20:23:02.971Z,152.83
2023-01-18T20:25:32.426Z,152.97
2023-01-18T20:28:00.271Z,152.87
2023-01-18T20:30:28.181Z,153.13
2023-01-18T20:32:56.214Z,152.63
2023-01-18T20:35:24.101Z,153.50
2023-01-18T20:37:54.291Z,152.50
2023-01-18T20:40:23.553Z,152.50
2023-01-18T20:42:52.781Z,152.57
2023-01-18T20:45:20.784Z,152.93
2023-01-18T20:47:48.621Z,153.37
2023-01-18T20:50:17.767Z,152.77
2023-01-18T20:52:45.717Z,152.40
2023-01-18T20:55:14.639Z,153.27
2023-01-18T20:57:44.051Z,152.87
2023-01-18T21:00:13.664Z,152.80
2023-01-18T21:02:42.257Z,153.07
2023-01-18T21:05:10.518Z,153.27
2023-01-18T21:07:39.402Z,153.23
2023-01-18T21:10:10.335Z,153.07
2023-01-18T21:12:38.259Z,152.50
2023-01-18T21:15:09.087Z,152.57
2023-01-18T21:17:36.985Z,153.07
2023-01-18T21:20:05.385Z,153.07
2023-01-18T21:22:33.240Z,153.37
2023-01-18T21:25:01.076Z,152.80
2023-01-18T21:27:29.162Z,153.23
2023-01-18T21:29:56.989Z,153.20
2023-01-18T21:32:26.214Z,152.47
2023-01-18T21:34:54.060Z,152.40
2023-01-18T21:37:21.906Z,152.43
2023-01-18T21:39:49.777Z,152.47
2023-01-18T21:42:35.353Z,152.63
2023-01-18T21:45:20.914Z,153.20
2023-01-18T21:47:50.083Z,153.07
2023-01-18T21:50:35.628Z,153.07
2023-01-18T21:53:20.896Z,152.83
2023-01-18T21:55:48.721Z,151.97
2023-01-18T21:58:34.122Z,152.67
2023-01-18T22:01:02.087Z,152.80
2023-01-18T22:03:31.289Z,153.00
2023-01-18T22:06:00.700Z,153.27
2023-01-18T22:08:28.796Z,152.87
2023-01-18T22:10:56.625Z,152.70
2023-01-18T22:13:24.495Z,152.97
2023-01-18T22:15:52.433Z,152.57
2023-01-18T22:18:20.365Z,153.10
2023-01-18T22:20:57.078Z,153.17
2023-01-18T22:23:24.981Z,153.13
2023-01-18T22:25:55.481Z,152.77
2023-01-18T22:28:23.623Z,153.40
2023-01-18T22:30:51.468Z,153.13
2023-01-18T22:33:19.540Z,152.80
2023-01-18T22:35:47.525Z,152.73
2023-01-18T22:38:16.752Z,152.63
2023-01-18T22:40:44.555Z,153.27
2023-01-18T22:43:12.369Z,153.23
2023-01-18T22:45:40.257Z,153.13
2023-01-18T22:48:08.094Z,153.23
2023-01-18T22:50:35.961Z,152.70
2023-01-18T22:53:03.811Z,153.70
2023-01-18T22:55:34.187Z,153.40
2023-01-18T22:58:02.377Z,153.27
2023-01-18T23:00:30.472Z,153.20
2023-01-18T23:02:58.279Z,152.43
2023-01-18T23:05:26.218Z,152.97
2023-01-18T23:07:54.088Z,152.87
2023-01-18T23:10:21.924Z,153.07
2023-01-18T23:12:52.186Z,153.30
2023-01-18T23:15:37.745Z,152.60
2023-01-18T23:18:06.095Z,153.33
2023-01-18T23:20:33.936Z,152.77
2023-01-18T23:23:01.886Z,152.13
2023-01-18T23:25:29.703Z,152.80
2023-01-18T23:28:03.093Z,152.40
2023-01-18T23:30:32.039Z,151.70
2023-01-18T23:32:59.991Z,152.33
2023-01-18T23:35:27.827Z,152.57
2023-01-18T23:37:55.669Z,152.40
2023-01-18T23:40:40.950Z,152.40
2023-01-18T23:43:27.867Z,152.57
2023-01-18T23:46:13.485Z,151.70
2023-01-18T23:48:58.871Z,152.87
2023-01-18T23:51:44.510Z,152.90
2023-01-18T23:54:18.648Z,152.30
2023-01-18T23:56:47.908Z,153.00
2023-01-18T23:59:17.183Z,152.63
